createdAt,value
2023-03-24T00:01:40.872Z,66.29
2023-03-24T00:04:10.262Z,66.24
2023-03-24T00:06:39.782Z,66.59
2023-03-24T00:09:08.926Z,66.61
2023-03-24T00:11:38.985Z,66.60
2023-03-24T00:14:11.665Z,66.91
2023-03-24T00:16:42.197Z,67.28
2023-03-24T00:19:14.282Z,67.40
2023-03-24T00:21:44.902Z,67.29
2023-03-24T00:24:14.595Z,67.41
2023-03-24T00:26:43.786Z,67.13
2023-03-24T00:29:13.160Z,67.46
2023-03-24T00:31:42.851Z,67.05
2023-03-24T00:34:13.124Z,67.20
2023-03-24T00:36:42.280Z,67.18
2023-03-24T00:39:11.674Z,67.12
2023-03-24T00:41:44.681Z,67.25
2023-03-24T00:44:17.464Z,67.49
2023-03-24T00:46:55.536Z,67.48
2023-03-24T00:49:41.922Z,67.56
2023-03-24T00:52:12.696Z,67.60
2023-03-24T00:54:42.846Z,67.37
2023-03-24T00:57:14.188Z,67.13
2023-03-24T00:59:48.799Z,66.97
2023-03-24T01:02:21.720Z,67.38
2023-03-24T01:04:55.835Z,67.64
2023-03-24T01:07:27.691Z,67.20
2023-03-24T01:09:58.123Z,67.37
2023-03-24T01:12:31.458Z,67.67
2023-03-24T01:15:05.158Z,67.66
2023-03-24T01:17:34.556Z,67.94
2023-03-24T01:20:07.503Z,68.05
2023-03-24T01:22:39.382Z,68.26
2023-03-24T01:25:11.861Z,68.27
2023-03-24T01:27:41.198Z,67.92
2023-03-24T01:30:14.293Z,67.64
2023-03-24T01:32:47.064Z,67.75
2023-03-24T01:35:16.850Z,67.67
2023-03-24T01:37:45.996Z,68.13
2023-03-24T01:40:19.447Z,68.23
2023-03-24T01:42:48.950Z,68.45
2023-03-24T01:45:58.264Z,68.38
2023-03-24T01:48:33.927Z,68.51
2023-03-24T01:51:07.354Z,68.55
2023-03-24T01:53:42.414Z,68.71
2023-03-24T01:56:12.288Z,68.56
2023-03-24T01:58:48.342Z,68.64
2023-03-24T02:01:19.014Z,68.72
2023-03-24T02:03:49.125Z,68.68
2023-03-24T02:06:19.673Z,68.82
2023-03-24T02:08:54.498Z,69.00
2023-03-24T02:11:30.678Z,69.72
2023-03-24T02:33:28.333Z,69.84
2023-03-24T02:36:28.041Z,70.04
2023-03-24T02:39:32.704Z,70.16
2023-03-24T02:42:12.012Z,70.15
2023-03-24T02:44:48.146Z,70.27
2023-03-24T02:47:24.373Z,70.23
2023-03-24T02:50:03.988Z,70.23
2023-03-24T02:52:35.478Z,70.11
2023-03-24T02:55:12.472Z,69.91
2023-03-24T02:57:48.826Z,70.42
2023-03-24T03:00:26.502Z,70.79
2023-03-24T03:03:02.311Z,70.89
2023-03-24T03:05:37.178Z,70.51
2023-03-24T03:08:09.996Z,71.22
2023-03-24T03:10:43.257Z,70.82
2023-03-24T03:13:21.208Z,70.73
2023-03-24T03:15:55.063Z,70.84
2023-03-24T03:18:32.931Z,70.92
2023-03-24T03:21:06.924Z,71.00
2023-03-24T03:23:38.646Z,71.03
2023-03-24T03:26:13.083Z,71.05
2023-03-24T03:28:49.300Z,70.80
2023-03-24T03:31:23.847Z,71.05
2023-03-24T03:33:58.735Z,70.97
2023-03-24T03:36:33.429Z,70.89
2023-03-24T03:39:10.585Z,70.84
2023-03-24T03:41:40.421Z,70.88
2023-03-24T03:44:10.152Z,70.76
2023-03-24T03:46:39.569Z,70.99
2023-03-24T03:49:09.721Z,70.97
2023-03-24T03:51:39.368Z,71.56
2023-03-24T03:54:11.620Z,71.49
2023-03-24T03:56:41.990Z,71.58
2023-03-24T03:59:26.963Z,71.48
2023-03-24T04:01:57.852Z,71.18
2023-03-24T04:04:59.751Z,71.02
2023-03-24T04:07:42.241Z,71.23
2023-03-24T04:10:21.240Z,70.95
2023-03-24T04:13:07.587Z,70.94
2023-03-24T04:15:42.948Z,70.85
2023-03-24T04:18:31.788Z,70.73
2023-03-24T04:21:27.743Z,70.41
2023-03-24T04:24:13.696Z,70.93
2023-03-24T04:26:53.948Z,70.87
2023-03-24T04:29:36.500Z,70.93
2023-03-24T04:32:18.987Z,71.03
2023-03-24T04:34:53.771Z,71.31
2023-03-24T04:37:26.744Z,71.28
2023-03-24T04:39:59.590Z,71.27
2023-03-24T04:42:35.496Z,71.16
2023-03-24T04:45:05.981Z,70.68
2023-03-24T04:47:49.388Z,70.51
2023-03-24T04:50:30.306Z,70.67
2023-03-24T04:53:01.320Z,70.65
2023-03-24T04:55:50.922Z,70.89
2023-03-24T04:58:31.780Z,70.76
2023-03-24T05:01:02.749Z,70.72
2023-03-24T05:03:31.943Z,70.75
2023-03-24T05:06:01.092Z,70.73
2023-03-24T05:08:30.468Z,70.86
2023-03-24T05:11:01.095Z,70.77
2023-03-24T05:13:32.044Z,70.77
2023-03-24T05:16:01.525Z,70.66
2023-03-24T05:18:30.889Z,70.49
2023-03-24T05:21:00.636Z,70.53
2023-03-24T05:23:30.213Z,70.69
2023-03-24T05:26:00.185Z,70.62
2023-03-24T05:28:30.551Z,70.56
2023-03-24T05:31:01.034Z,70.53
2023-03-24T05:33:30.897Z,70.44
2023-03-24T05:36:00.430Z,70.40
2023-03-24T05:38:37.604Z,70.34
2023-03-24T05:41:08.879Z,70.11
2023-03-24T05:43:38.084Z,70.11
2023-03-24T05:46:08.325Z,70.00
2023-03-24T05:48:37.539Z,70.05
2023-03-24T05:51:07.992Z,69.96
2023-03-24T05:53:40.213Z,69.96
2023-03-24T05:56:15.030Z,69.71
2023-03-24T05:58:45.496Z,69.51
2023-03-24T06:01:18.028Z,69.53
2023-03-24T06:03:48.985Z,69.57
2023-03-24T06:06:18.680Z,69.58
2023-03-24T06:08:47.933Z,69.43
2023-03-24T06:11:17.066Z,69.23
2023-03-24T06:13:46.585Z,69.12
2023-03-24T06:16:18.358Z,69.09
2023-03-24T06:18:51.944Z,69.11
2023-03-24T06:21:21.833Z,68.92
2023-03-24T06:23:51.686Z,68.94
2023-03-24T06:26:20.753Z,68.83
2023-03-24T06:28:51.517Z,68.73
2023-03-24T06:31:21.782Z,68.71
2023-03-24T06:33:52.526Z,68.74
2023-03-24T06:36:23.124Z,68.81
2023-03-24T06:38:53.865Z,68.65
2023-03-24T06:41:35.796Z,68.53
2023-03-24T06:44:05.079Z,68.38
2023-03-24T06:46:34.439Z,68.30
2023-03-24T06:49:04.369Z,68.27
2023-03-24T06:51:33.736Z,68.03
2023-03-24T06:54:03.605Z,68.03
2023-03-24T06:56:34.422Z,67.75
2023-03-24T06:59:04.010Z,67.85
2023-03-24T07:01:34.581Z,67.70
2023-03-24T07:04:04.125Z,67.63
2023-03-24T07:06:40.420Z,67.54
2023-03-24T07:09:13.292Z,66.95
2023-03-24T07:11:45.973Z,66.70
2023-03-24T07:14:15.471Z,66.31
2023-03-24T07:16:44.817Z,66.54
2023-03-24T07:19:13.869Z,66.46
2023-03-24T07:21:43.749Z,66.20
2023-03-24T07:24:12.950Z,65.94
2023-03-24T07:26:42.093Z,65.62
2023-03-24T07:29:13.344Z,65.08
2023-03-24T07:31:42.626Z,65.06
2023-03-24T07:34:11.729Z,65.06
2023-03-24T07:36:41.029Z,63.91
2023-03-24T07:39:10.243Z,63.83
2023-03-24T07:41:39.416Z,63.18
2023-03-24T07:44:09.223Z,63.20
2023-03-24T07:46:38.556Z,62.57
2023-03-24T07:49:18.221Z,62.38
2023-03-24T07:51:48.728Z,62.79
2023-03-24T07:54:18.214Z,62.38
2023-03-24T07:56:47.348Z,62.32
2023-03-24T07:59:17.340Z,62.68
2023-03-24T08:01:51.317Z,62.42
2023-03-24T08:04:23.918Z,62.25
2023-03-24T08:06:53.520Z,61.99
2023-03-24T08:09:23.649Z,61.94
2023-03-24T08:11:52.995Z,62.45
2023-03-24T08:14:22.967Z,61.96
2023-03-24T08:16:53.233Z,60.98
2023-03-24T08:19:22.775Z,60.38
2023-03-24T08:21:51.914Z,60.02
2023-03-24T08:24:20.873Z,60.01
2023-03-24T08:26:50.198Z,59.55
2023-03-24T08:29:19.180Z,59.83
2023-03-24T08:31:48.380Z,59.80
2023-03-24T08:34:18.678Z,59.23
2023-03-24T08:36:48.469Z,59.83
2023-03-24T08:39:17.687Z,58.32
2023-03-24T08:41:49.593Z,58.54
2023-03-24T08:44:18.856Z,58.35
2023-03-24T08:46:48.272Z,58.46
2023-03-24T08:49:18.692Z,58.78
2023-03-24T08:51:47.981Z,58.46
2023-03-24T08:54:17.302Z,58.13
2023-03-24T08:56:46.936Z,58.45
2023-03-24T08:59:16.367Z,58.17
2023-03-24T09:01:45.535Z,58.41
2023-03-24T09:04:15.143Z,58.21
2023-03-24T09:06:44.426Z,57.43
2023-03-24T09:09:13.733Z,56.70
2023-03-24T09:11:42.971Z,56.93
2023-03-24T09:14:12.195Z,57.05
2023-03-24T09:16:43.420Z,56.98
2023-03-24T09:19:12.897Z,57.34
2023-03-24T09:21:42.588Z,57.08
2023-03-24T09:24:11.719Z,56.29
2023-03-24T09:26:41.206Z,56.12
2023-03-24T09:29:10.422Z,56.59
2023-03-24T09:31:39.599Z,57.36
2023-03-24T09:34:09.380Z,56.47
2023-03-24T09:36:38.400Z,56.22
2023-03-24T09:39:08.243Z,55.22
2023-03-24T09:41:37.931Z,55.19
2023-03-24T09:44:14.062Z,54.81
2023-03-24T09:46:47.712Z,54.64
2023-03-24T09:49:24.800Z,54.37
2023-03-24T09:51:57.187Z,54.86
2023-03-24T09:54:37.676Z,55.03
2023-03-24T09:57:16.643Z,54.07
2023-03-24T09:59:45.801Z,52.91
2023-03-24T10:02:18.206Z,51.63
2023-03-24T10:04:47.908Z,51.78
2023-03-24T10:07:25.150Z,52.10
2023-03-24T10:09:59.473Z,51.38
2023-03-24T10:12:36.886Z,51.03
2023-03-24T10:15:24.343Z,50.95
2023-03-24T10:18:19.439Z,48.98
2023-03-24T10:20:54.745Z,50.28
2023-03-24T10:23:33.112Z,48.44
2023-03-24T10:26:09.388Z,49.15
2023-03-24T10:28:45.037Z,47.24
2023-03-24T10:31:17.626Z,46.95
2023-03-24T10:33:49.227Z,47.05
2023-03-24T10:36:20.943Z,47.47
2023-03-24T10:38:50.562Z,46.92
2023-03-24T10:41:21.965Z,48.36
2023-03-24T10:43:52.716Z,47.91
2023-03-24T10:46:25.614Z,45.81
2023-03-24T10:49:08.143Z,44.67
2023-03-24T10:51:37.911Z,43.89
2023-03-24T10:54:16.801Z,45.19
2023-03-24T10:56:48.287Z,45.16
2023-03-24T10:59:22.814Z,46.31
2023-03-24T11:01:56.476Z,46.50
2023-03-24T11:04:26.660Z,45.55
2023-03-24T11:07:15.379Z,42.18
2023-03-24T11:09:46.478Z,44.06
2023-03-24T11:12:23.572Z,44.87
2023-03-24T11:15:10.458Z,44.64
2023-03-24T11:17:48.527Z,42.81
2023-03-24T11:20:37.655Z,41.88
2023-03-24T11:23:11.387Z,43.00
2023-03-24T11:25:42.343Z,43.73
2023-03-24T11:28:18.221Z,42.40
2023-03-24T11:30:51.143Z,42.25
2023-03-24T11:33:35.541Z,40.99
2023-03-24T11:36:31.019Z,42.41
2023-03-24T11:39:04.337Z,41.88
2023-03-24T11:41:42.107Z,41.20
2023-03-24T11:44:23.080Z,42.51
2023-03-24T11:46:57.135Z,40.97
2023-03-24T11:49:34.833Z,39.46
2023-03-24T11:52:09.916Z,40.51
2023-03-24T11:54:39.984Z,41.27
2023-03-24T11:57:17.243Z,40.06
2023-03-24T11:59:57.401Z,40.08
2023-03-24T12:02:43.974Z,39.22
2023-03-24T12:05:26.749Z,38.04
2023-03-24T12:08:18.205Z,38.28
2023-03-24T12:11:01.006Z,38.89
2023-03-24T12:13:37.432Z,39.74
2023-03-24T12:16:32.645Z,38.43
2023-03-24T12:19:36.729Z,38.39
2023-03-24T12:22:20.608Z,38.11
2023-03-24T12:25:18.575Z,38.04
2023-03-24T12:27:56.472Z,37.85
2023-03-24T12:30:31.604Z,36.00
2023-03-24T12:33:14.972Z,36.18
2023-03-24T12:35:56.536Z,37.05
2023-03-24T12:38:41.113Z,36.77
2023-03-24T12:41:31.173Z,35.62
2023-03-24T12:44:17.671Z,35.83
2023-03-24T12:46:54.172Z,35.73
2023-03-24T12:49:46.901Z,35.75
2023-03-24T12:52:32.528Z,34.74
2023-03-24T12:55:08.880Z,34.33
2023-03-24T12:57:42.812Z,34.29
2023-03-24T13:00:18.544Z,35.45
2023-03-24T13:02:52.209Z,34.56
2023-03-24T13:05:27.036Z,35.37
2023-03-24T13:08:02.650Z,34.93
2023-03-24T13:10:39.855Z,33.14
2023-03-24T13:13:17.258Z,32.78
2023-03-24T13:15:49.909Z,33.15
2023-03-24T13:18:28.338Z,34.35
2023-03-24T13:21:03.409Z,33.34
2023-03-24T13:23:40.754Z,33.35
2023-03-24T13:26:18.862Z,32.97
2023-03-24T13:29:01.080Z,31.96
2023-03-24T13:31:36.625Z,32.29
2023-03-24T13:34:13.162Z,32.50
2023-03-24T13:36:49.001Z,33.45
2023-03-24T13:39:21.567Z,33.41
2023-03-24T13:41:53.552Z,31.91
2023-03-24T13:44:28.455Z,31.55
2023-03-24T13:47:16.172Z,31.74
2023-03-24T13:49:54.002Z,31.93
2023-03-24T13:52:31.590Z,31.94
2023-03-24T13:55:08.518Z,32.26
2023-03-24T13:57:41.902Z,32.16
2023-03-24T14:00:22.731Z,31.78
2023-03-24T14:02:54.666Z,31.09
2023-03-24T14:06:02.229Z,31.14
2023-03-24T14:08:55.920Z,30.13
2023-03-24T14:12:08.492Z,29.99
2023-03-24T14:15:12.748Z,30.08
2023-03-24T14:17:45.484Z,29.61
2023-03-24T14:20:32.542Z,30.68
2023-03-24T14:23:04.166Z,29.45
2023-03-24T14:25:36.261Z,29.73
2023-03-24T14:28:22.971Z,29.41
2023-03-24T14:31:09.392Z,29.13
2023-03-24T14:33:39.288Z,29.74
2023-03-24T14:36:12.460Z,29.76
2023-03-24T14:38:44.747Z,28.87
2023-03-24T14:41:23.252Z,29.18
2023-03-24T14:43:58.983Z,29.28
2023-03-24T14:46:41.373Z,28.08
2023-03-24T14:49:24.561Z,27.77
2023-03-24T14:52:02.027Z,27.76
2023-03-24T14:54:38.034Z,28.59
2023-03-24T14:57:08.934Z,28.35
2023-03-24T14:59:47.038Z,28.23
2023-03-24T15:02:28.516Z,27.69
2023-03-24T15:05:22.883Z,27.45
2023-03-24T15:08:15.352Z,26.64
2023-03-24T15:10:49.857Z,27.06
2023-03-24T15:13:32.225Z,27.48
2023-03-24T15:16:05.202Z,26.69
2023-03-24T15:18:34.845Z,26.79
2023-03-24T15:21:15.848Z,27.54
2023-03-24T15:23:49.017Z,27.54
2023-03-24T15:26:22.226Z,27.59
2023-03-24T15:28:59.926Z,27.97
2023-03-24T15:31:31.652Z,28.42
2023-03-24T15:34:08.406Z,28.63
2023-03-24T15:36:45.080Z,29.12
2023-03-24T15:39:24.816Z,29.24
2023-03-24T15:41:56.321Z,29.68
2023-03-24T15:44:28.426Z,30.05
2023-03-24T15:46:59.676Z,30.26
2023-03-24T15:49:34.856Z,30.58
2023-03-24T15:52:22.510Z,30.63
2023-03-24T15:54:54.526Z,30.92
2023-03-24T15:57:25.068Z,31.12
2023-03-24T16:00:12.567Z,31.31
2023-03-24T16:02:51.802Z,31.49
2023-03-24T16:05:23.822Z,31.71
2023-03-24T16:08:03.177Z,31.83
2023-03-24T16:10:39.420Z,32.15
2023-03-24T16:13:20.410Z,32.22
2023-03-24T16:15:58.417Z,32.28
2023-03-24T16:18:33.239Z,32.56
2023-03-24T16:21:09.992Z,32.79
2023-03-24T16:23:41.795Z,32.91
2023-03-24T16:26:13.857Z,33.33
2023-03-24T16:28:43.256Z,33.47
2023-03-24T16:31:25.458Z,33.93
2023-03-24T16:33:59.849Z,34.46
2023-03-24T16:36:29.430Z,34.53
2023-03-24T16:39:01.859Z,34.61
2023-03-24T16:41:35.120Z,34.94
2023-03-24T16:44:05.207Z,34.94
2023-03-24T16:46:36.460Z,35.03
2023-03-24T16:49:08.220Z,35.18
2023-03-24T16:51:37.541Z,35.65
2023-03-24T16:54:08.700Z,35.97
2023-03-24T16:56:41.864Z,35.81
2023-03-24T16:59:14.262Z,35.88
2023-03-24T17:01:45.343Z,36.04
2023-03-24T17:04:17.379Z,36.13
2023-03-24T17:06:48.564Z,36.31
2023-03-24T17:09:18.476Z,36.22
2023-03-24T17:11:51.355Z,36.19
2023-03-24T17:14:21.121Z,36.07
2023-03-24T17:16:52.113Z,36.35
2023-03-24T17:19:23.446Z,36.47
2023-03-24T17:21:58.188Z,36.40
2023-03-24T17:24:28.158Z,36.69
2023-03-24T17:26:57.431Z,36.54
2023-03-24T17:29:26.852Z,36.63
2023-03-24T17:31:56.605Z,36.74
2023-03-24T17:34:25.636Z,36.87
2023-03-24T17:36:55.175Z,36.94
2023-03-24T17:39:24.818Z,37.06
2023-03-24T17:41:57.146Z,36.94
2023-03-24T17:44:26.986Z,37.08
2023-03-24T17:46:56.713Z,37.24
2023-03-24T17:49:28.130Z,37.32
2023-03-24T17:51:58.104Z,37.47
2023-03-24T17:54:27.542Z,37.72
2023-03-24T17:57:11.061Z,37.57
2023-03-24T17:59:47.456Z,37.81
2023-03-24T18:02:20.804Z,37.73
2023-03-24T18:04:58.650Z,37.72
2023-03-24T18:07:28.406Z,37.71
2023-03-24T18:09:57.819Z,37.68
2023-03-24T18:12:27.962Z,37.80
2023-03-24T18:14:57.177Z,37.80
2023-03-24T18:17:26.904Z,38.00
2023-03-24T18:19:59.030Z,38.04
2023-03-24T18:22:28.609Z,37.97
2023-03-24T18:24:57.836Z,38.10
2023-03-24T18:27:27.614Z,38.27
2023-03-24T18:29:57.169Z,38.40
2023-03-24T18:32:28.354Z,38.16
2023-03-24T18:35:00.268Z,38.35
2023-03-24T18:37:34.704Z,38.20
2023-03-24T18:40:07.911Z,38.54
2023-03-24T18:42:38.510Z,38.67
2023-03-24T18:45:16.715Z,38.73
2023-03-24T18:47:47.221Z,38.70
2023-03-24T18:50:17.765Z,38.80
2023-03-24T18:52:49.035Z,38.81
2023-03-24T18:55:20.169Z,38.86
2023-03-24T18:57:50.316Z,39.00
2023-03-24T19:00:21.637Z,39.15
2023-03-24T19:02:51.840Z,39.25
2023-03-24T19:05:21.744Z,39.61
2023-03-24T19:07:51.763Z,39.66
2023-03-24T19:10:21.907Z,39.96
2023-03-24T19:12:51.374Z,40.18
2023-03-24T19:15:21.288Z,40.14
2023-03-24T19:17:50.877Z,40.19
2023-03-24T19:20:20.816Z,40.34
2023-03-24T19:22:50.225Z,40.27
2023-03-24T19:25:19.744Z,40.34
2023-03-24T19:27:49.895Z,40.50
2023-03-24T19:30:19.885Z,40.57
2023-03-24T19:32:49.918Z,40.69
2023-03-24T19:35:19.418Z,40.56
2023-03-24T19:37:49.584Z,40.66
2023-03-24T19:40:19.044Z,40.62
2023-03-24T19:42:48.371Z,40.64
2023-03-24T19:45:19.259Z,40.76
2023-03-24T19:47:48.765Z,40.72
2023-03-24T19:50:18.884Z,40.86
2023-03-24T19:52:48.005Z,40.80
2023-03-24T19:55:18.699Z,40.83
2023-03-24T19:57:48.532Z,40.67
2023-03-24T20:00:19.438Z,40.70
2023-03-24T20:02:49.914Z,40.73
2023-03-24T20:05:19.368Z,40.82
2023-03-24T20:07:49.040Z,41.01
2023-03-24T20:10:20.862Z,41.30
2023-03-24T20:12:55.247Z,41.37
2023-03-24T20:15:33.208Z,41.57
2023-03-24T20:18:03.684Z,41.57
2023-03-24T20:20:33.867Z,41.84
2023-03-24T20:23:03.926Z,42.08
2023-03-24T20:25:34.199Z,42.10
2023-03-24T20:28:04.389Z,42.29
2023-03-24T20:30:34.474Z,42.42
2023-03-24T20:33:04.915Z,42.55
2023-03-24T20:35:36.500Z,42.53
2023-03-24T20:38:06.788Z,42.72
2023-03-24T20:40:36.886Z,42.78
2023-03-24T20:43:06.975Z,42.96
2023-03-24T20:45:37.364Z,42.94
2023-03-24T20:48:08.270Z,42.88
2023-03-24T20:50:37.613Z,42.92
2023-03-24T20:53:08.565Z,43.04
2023-03-24T20:55:38.316Z,43.15
2023-03-24T20:58:08.113Z,43.21
2023-03-24T21:00:41.335Z,43.32
2023-03-24T21:03:11.880Z,43.39
2023-03-24T21:05:41.610Z,43.46
2023-03-24T21:08:11.001Z,43.45
2023-03-24T21:10:40.503Z,43.56
2023-03-24T21:13:10.029Z,43.62
2023-03-24T21:15:47.574Z,43.55
2023-03-24T21:18:17.309Z,43.62
2023-03-24T21:20:55.013Z,43.60
2023-03-24T21:23:27.043Z,43.65
2023-03-24T21:25:56.180Z,43.72
2023-03-24T21:28:27.920Z,43.69
2023-03-24T21:30:57.934Z,43.73
2023-03-24T21:33:27.539Z,43.79
2023-03-24T21:35:57.824Z,43.85
2023-03-24T21:38:28.169Z,43.81
2023-03-24T21:41:00.256Z,43.84
2023-03-24T21:43:30.144Z,43.93
2023-03-24T21:46:14.343Z,44.01
2023-03-24T21:48:49.579Z,43.88
2023-03-24T21:51:23.487Z,44.07
2023-03-24T21:53:54.895Z,44.15
2023-03-24T21:56:24.161Z,44.20
2023-03-24T21:58:54.502Z,44.18
2023-03-24T22:01:24.647Z,44.18
2023-03-24T22:03:55.236Z,44.33
2023-03-24T22:06:24.796Z,44.61
2023-03-24T22:08:57.658Z,44.84
2023-03-24T22:11:27.224Z,44.93
2023-03-24T22:13:56.541Z,44.92
2023-03-24T22:16:25.666Z,45.01
2023-03-24T22:18:56.724Z,45.21
2023-03-24T22:21:26.938Z,45.26
2023-03-24T22:23:56.624Z,45.32
2023-03-24T22:26:26.245Z,45.45
2023-03-24T22:28:55.977Z,45.37
2023-03-24T22:31:25.795Z,45.51
2023-03-24T22:33:55.777Z,45.79
2023-03-24T22:36:25.618Z,45.83
2023-03-24T22:38:55.234Z,45.90
2023-03-24T22:41:24.594Z,46.20
2023-03-24T22:43:54.716Z,46.39
2023-03-24T22:46:25.608Z,46.78
2023-03-24T22:48:56.072Z,46.90
2023-03-24T22:51:25.476Z,46.89
2023-03-24T22:53:55.086Z,46.99
2023-03-24T22:56:24.929Z,46.94
2023-03-24T22:58:55.021Z,47.18
2023-03-24T23:01:26.289Z,47.15
2023-03-24T23:03:55.726Z,47.31
2023-03-24T23:06:26.950Z,47.42
2023-03-24T23:08:56.512Z,47.57
2023-03-24T23:11:26.133Z,47.84
2023-03-24T23:14:04.691Z,48.10
2023-03-24T23:16:34.651Z,48.27
2023-03-24T23:19:04.821Z,48.66
2023-03-24T23:21:34.246Z,48.92
2023-03-24T23:24:03.749Z,49.54
2023-03-24T23:26:33.512Z,49.69
2023-03-24T23:29:02.939Z,49.61
2023-03-24T23:31:32.418Z,50.20
2023-03-24T23:34:04.369Z,50.24
2023-03-24T23:36:50.548Z,50.42
2023-03-24T23:39:20.509Z,50.67
2023-03-24T23:41:49.995Z,50.73
2023-03-24T23:44:19.694Z,50.67
2023-03-24T23:46:48.898Z,50.70
2023-03-24T23:49:18.491Z,50.66
2023-03-24T23:51:47.696Z,50.70
2023-03-24T23:54:17.104Z,50.79
2023-03-24T23:56:46.999Z,50.74
2023-03-24T23:59:16.337Z,50.75
